createdAt,value
2017-02-19T00:00:15.275Z,94.6
2017-02-19T00:00:55.828Z,94.79
2017-02-19T00:01:36.401Z,94.79
2017-02-19T00:02:16.956Z,94.79
2017-02-19T00:02:57.540Z,94.79
2017-02-19T00:03:39.122Z,94.79
2017-02-19T00:04:19.706Z,94.79
2017-02-19T00:05:00.296Z,94.79
2017-02-19T00:05:40.875Z,94.89
2017-02-19T00:06:21.467Z,94.79
2017-02-19T00:07:02.025Z,95.07
2017-02-19T00:07:42.615Z,94.7
2017-02-19T00:08:23.199Z,95.07
2017-02-19T00:09:05.826Z,95.17
2017-02-19T00:09:46.392Z,95.17
2017-02-19T00:10:26.961Z,95.36
2017-02-19T00:11:07.533Z,95.45
2017-02-19T00:11:48.102Z,95.45
2017-02-19T00:12:28.663Z,95.17
2017-02-19T00:13:09.246Z,95.07
2017-02-19T00:13:49.842Z,95.17
2017-02-19T00:14:30.424Z,95.36
2017-02-19T00:15:10.995Z,95.36
2017-02-19T00:15:51.558Z,95.26
2017-02-19T00:16:32.143Z,95.17
2017-02-19T00:17:12.722Z,95.36
2017-02-19T00:17:54.289Z,95.17
2017-02-19T00:18:35.885Z,95.07
2017-02-19T00:19:16.447Z,95.03
2017-02-19T00:19:57.045Z,95.17
2017-02-19T00:20:37.622Z,95.26
2017-02-19T00:21:18.184Z,95.26
2017-02-19T00:21:58.758Z,95.45
2017-02-19T00:22:39.347Z,95.26
2017-02-19T00:23:21.918Z,94.98
2017-02-19T00:24:03.520Z,94.98
2017-02-19T00:24:44.096Z,94.98
2017-02-19T00:25:24.660Z,95.03
2017-02-19T00:26:05.232Z,94.98
2017-02-19T00:26:45.784Z,95.12
2017-02-19T00:27:26.374Z,95.31
2017-02-19T00:28:06.945Z,95.5
2017-02-19T00:28:49.536Z,95.5
2017-02-19T00:29:30.103Z,95.69
2017-02-19T00:30:10.673Z,95.21
2017-02-19T00:30:51.235Z,95.31
2017-02-19T00:31:31.802Z,95.26
2017-02-19T00:32:12.375Z,95.21
2017-02-19T00:32:53.963Z,95.45
2017-02-19T00:33:34.526Z,95.21
2017-02-19T00:34:15.089Z,95.31
2017-02-19T00:34:55.669Z,95.31
2017-02-19T00:35:36.280Z,95.31
2017-02-19T00:36:18.859Z,95.5
2017-02-19T00:36:59.422Z,95.4
2017-02-19T00:37:39.979Z,95.4
2017-02-19T00:38:20.547Z,95.4
2017-02-19T00:39:01.114Z,95.5
2017-02-19T00:39:43.697Z,95.21
2017-02-19T00:40:24.249Z,95.4
2017-02-19T00:41:04.833Z,95.21
2017-02-19T00:41:45.392Z,95.21
2017-02-19T00:42:25.960Z,95.21
2017-02-19T00:43:06.527Z,95.31
2017-02-19T00:43:47.125Z,95.31
2017-02-19T00:44:27.673Z,95.31
2017-02-19T00:45:08.236Z,95.31
2017-02-19T00:45:49.806Z,95.21
2017-02-19T00:46:30.558Z,95.5
2017-02-19T00:47:11.162Z,96.26
2017-02-19T00:47:51.725Z,95.88
2017-02-19T00:48:32.297Z,95.88
2017-02-19T00:49:17.506Z,95.97
2017-02-19T00:49:58.081Z,95.88
2017-02-19T00:50:38.655Z,96.07
2017-02-19T00:51:19.246Z,95.69
2017-02-19T00:51:59.817Z,95.97
2017-02-19T00:52:40.385Z,95.78
2017-02-19T00:53:20.980Z,95.97
2017-02-19T00:54:01.553Z,95.97
2017-02-19T00:54:42.155Z,95.88
2017-02-19T00:55:22.762Z,95.88
2017-02-19T00:56:03.349Z,95.69
2017-02-19T00:56:43.916Z,95.78
2017-02-19T00:57:24.493Z,95.88
2017-02-19T00:58:05.067Z,95.88
2017-02-19T00:58:46.627Z,95.88
2017-02-19T00:59:27.201Z,95.88
2017-02-19T01:00:08.771Z,95.59
2017-02-19T01:00:49.331Z,95.69
2017-02-19T01:01:30.895Z,95.78
2017-02-19T01:02:11.449Z,95.69
2017-02-19T01:02:54.046Z,95.78
2017-02-19T01:03:34.629Z,95.69
2017-02-19T01:04:16.569Z,95.88
2017-02-19T01:04:57.130Z,95.97
2017-02-19T01:05:38.708Z,95.88
2017-02-19T01:06:20.280Z,95.97
2017-02-19T01:07:01.854Z,95.69
2017-02-19T01:07:42.440Z,95.69
2017-02-19T01:08:24.007Z,95.97
2017-02-19T01:09:04.595Z,95.69
2017-02-19T01:09:45.166Z,96.16
2017-02-19T01:10:25.723Z,95.97
2017-02-19T01:11:06.308Z,96.26
2017-02-19T01:11:46.877Z,96.35
2017-02-19T01:12:27.460Z,95.88
2017-02-19T01:13:08.028Z,96.07
2017-02-19T01:13:48.590Z,96.26
2017-02-19T01:14:29.193Z,96.26
2017-02-19T01:15:09.754Z,95.97
2017-02-19T01:15:50.313Z,96.07
2017-02-19T01:16:30.873Z,96.35
2017-02-19T01:17:11.447Z,95.88
2017-02-19T01:17:52.012Z,96.16
2017-02-19T01:18:32.588Z,96.35
2017-02-19T01:19:13.137Z,95.97
2017-02-19T01:19:53.715Z,96.35
2017-02-19T01:20:34.288Z,96.16
2017-02-19T01:21:14.867Z,96.07
2017-02-19T01:21:55.469Z,96.16
2017-02-19T01:22:37.158Z,96.16
2017-02-19T01:23:17.799Z,96.26
2017-02-19T01:23:58.460Z,96.35
2017-02-19T01:24:39.104Z,96.07
2017-02-19T01:25:19.681Z,96.26
2017-02-19T01:26:00.282Z,96.26
2017-02-19T01:26:40.868Z,96.07
2017-02-19T01:27:21.514Z,96.35
2017-02-19T01:28:02.087Z,96.26
2017-02-19T01:28:42.689Z,96.07
2017-02-19T01:29:23.240Z,96.07
2017-02-19T01:30:03.913Z,96.07
2017-02-19T01:30:44.513Z,96.07
2017-02-19T01:31:25.094Z,96.26
2017-02-19T01:32:05.662Z,95.88
2017-02-19T01:32:47.241Z,96.16
2017-02-19T01:33:27.854Z,96.07
2017-02-19T01:34:08.430Z,96.73
2017-02-19T01:34:49.051Z,96.64
2017-02-19T01:35:29.655Z,96.73
2017-02-19T01:36:10.238Z,96.54
2017-02-19T01:36:51.852Z,96.64
2017-02-19T01:37:32.432Z,96.54
2017-02-19T01:38:13.090Z,96.54
2017-02-19T01:38:53.782Z,96.35
2017-02-19T01:39:34.366Z,96.54
2017-02-19T01:40:14.938Z,96.54
2017-02-19T01:40:56.515Z,96.73
2017-02-19T01:41:38.089Z,96.54
2017-02-19T01:42:19.742Z,96.64
2017-02-19T01:43:00.312Z,96.54
2017-02-19T01:43:40.974Z,96.54
2017-02-19T01:44:21.556Z,96.64
2017-02-19T01:45:02.143Z,96.54
2017-02-19T01:45:42.733Z,96.54
2017-02-19T01:46:25.321Z,96.35
2017-02-19T01:47:05.977Z,96.45
2017-02-19T01:47:48.560Z,97.11
2017-02-19T01:48:31.175Z,96.64
2017-02-19T01:49:11.839Z,96.73
2017-02-19T01:49:52.463Z,96.92
2017-02-19T01:50:33.034Z,96.92
2017-02-19T01:51:13.659Z,97.11
2017-02-19T01:51:54.240Z,96.92
2017-02-19T01:52:34.887Z,96.73
2017-02-19T01:53:15.467Z,96.92
2017-02-19T01:53:56.059Z,96.64
2017-02-19T01:54:36.622Z,96.92
2017-02-19T01:55:17.179Z,96.73
2017-02-19T01:56:02.425Z,96.73
2017-02-19T01:56:43.000Z,96.92
2017-02-19T01:57:25.601Z,96.92
2017-02-19T01:58:06.183Z,96.73
2017-02-19T01:58:46.750Z,96.92
2017-02-19T01:59:27.374Z,96.73
2017-02-19T02:00:07.991Z,96.83
2017-02-19T02:00:48.583Z,96.83
2017-02-19T02:01:29.225Z,96.92
2017-02-19T02:02:09.924Z,96.92
2017-02-19T02:02:51.515Z,96.83
2017-02-19T02:03:32.091Z,96.83
2017-02-19T02:04:12.682Z,96.83
2017-02-19T02:04:58.033Z,96.54
2017-02-19T02:05:38.684Z,96.64
2017-02-19T02:06:19.362Z,96.45
2017-02-19T02:06:59.987Z,96.54
2017-02-19T02:07:40.654Z,96.54
2017-02-19T02:08:21.270Z,96.64
2017-02-19T02:09:01.846Z,96.54
2017-02-19T02:09:42.502Z,96.54
2017-02-19T02:10:23.125Z,96.54
2017-02-19T02:11:03.760Z,96.92
2017-02-19T02:11:44.454Z,96.83
2017-02-19T02:12:26.158Z,96.83
2017-02-19T02:13:07.831Z,96.54
2017-02-19T02:13:48.421Z,96.83
2017-02-19T02:14:29.076Z,96.83
2017-02-19T02:15:09.729Z,96.83
2017-02-19T02:15:51.316Z,96.83
2017-02-19T02:16:31.970Z,96.73
2017-02-19T02:17:12.604Z,96.64
2017-02-19T02:17:53.262Z,96.83
2017-02-19T02:18:33.945Z,96.73
2017-02-19T02:19:14.565Z,96.73
2017-02-19T02:19:56.140Z,96.64
2017-02-19T02:20:36.792Z,96.64
2017-02-19T02:21:18.384Z,96.73
2017-02-19T02:21:58.988Z,96.73
2017-02-19T02:22:40.547Z,96.64
2017-02-19T02:23:22.186Z,97.11
2017-02-19T02:24:03.852Z,97.39
2017-02-19T02:24:44.513Z,97.58
2017-02-19T02:25:25.166Z,97.49
2017-02-19T02:26:05.804Z,97.58
2017-02-19T02:26:47.381Z,97.2
2017-02-19T02:27:28.031Z,97.2
2017-02-19T02:28:08.717Z,97.3
2017-02-19T02:28:49.361Z,97.3
2017-02-19T02:29:29.993Z,97.3
2017-02-19T02:30:12.631Z,97.39
2017-02-19T02:30:53.225Z,97.3
2017-02-19T02:31:33.824Z,97.11
2017-02-19T02:32:14.440Z,97.39
2017-02-19T02:32:55.040Z,97.3
2017-02-19T02:33:35.629Z,97.39
2017-02-19T02:34:16.188Z,97.3
2017-02-19T02:34:56.851Z,97.39
2017-02-19T02:35:38.481Z,97.2
2017-02-19T02:36:19.061Z,97.3
2017-02-19T02:36:59.686Z,97.11
2017-02-19T02:37:40.317Z,97.01
2017-02-19T02:38:20.981Z,97.49
2017-02-19T02:39:01.553Z,97.01
2017-02-19T02:39:42.120Z,97.01
2017-02-19T02:40:22.791Z,97.2
2017-02-19T02:41:03.442Z,97.11
2017-02-19T02:41:43.994Z,97.01
2017-02-19T02:42:24.655Z,97.11
2017-02-19T02:43:05.291Z,97.49
2017-02-19T02:43:45.848Z,97.58
2017-02-19T02:44:27.443Z,97.67
2017-02-19T02:45:09.001Z,97.39
2017-02-19T02:45:49.576Z,97.39
2017-02-19T02:46:30.141Z,97.49
2017-02-19T02:47:10.712Z,97.86
2017-02-19T02:47:51.268Z,97.67
2017-02-19T02:48:32.978Z,97.49
2017-02-19T02:49:18.443Z,97.86
2017-02-19T02:49:59.049Z,97.2
2017-02-19T02:50:39.683Z,97.49
2017-02-19T02:51:20.355Z,97.3
2017-02-19T02:52:00.944Z,97.96
2017-02-19T02:52:41.502Z,97.39
2017-02-19T02:53:22.092Z,97.58
2017-02-19T02:54:02.667Z,97.34
2017-02-19T02:54:43.298Z,97.39
2017-02-19T02:55:23.901Z,97.3
2017-02-19T02:56:04.550Z,97.44
2017-02-19T02:56:47.148Z,97.16
2017-02-19T02:57:33.441Z,98.29
2017-02-19T02:58:14.098Z,98.2
2017-02-19T02:58:54.743Z,98.29
2017-02-19T02:59:35.392Z,98.2
2017-02-19T03:00:16.054Z,98.01
2017-02-19T03:00:56.695Z,98.29
2017-02-19T03:01:37.357Z,98.2
2017-02-19T03:02:19.931Z,97.16
2017-02-19T03:03:00.516Z,98.1
2017-02-19T03:03:41.153Z,97.16
2017-02-19T03:04:21.807Z,98.1
2017-02-19T03:05:02.369Z,98.29
2017-02-19T03:05:42.946Z,98.29
2017-02-19T03:06:23.663Z,98.1
2017-02-19T03:07:05.344Z,97.72
2017-02-19T03:07:45.899Z,97.91
2017-02-19T03:08:26.588Z,98.29
2017-02-19T03:09:08.169Z,97.91
2017-02-19T03:09:50.820Z,98.29
2017-02-19T03:10:31.397Z,97.91
2017-02-19T03:11:13.075Z,97.91
2017-02-19T03:11:53.654Z,97.82
2017-02-19T03:12:35.275Z,97.91
2017-02-19T03:13:15.830Z,97.91
2017-02-19T03:13:57.408Z,97.91
2017-02-19T03:14:38.034Z,98.01
2017-02-19T03:15:19.632Z,98.01
2017-02-19T03:16:00.221Z,97.72
2017-02-19T03:16:40.838Z,97.72
2017-02-19T03:17:22.412Z,97.82
2017-02-19T03:18:03.993Z,97.82
2017-02-19T03:18:44.638Z,97.72
2017-02-19T03:19:25.297Z,97.72
2017-02-19T03:20:06.871Z,97.72
2017-02-19T03:20:48.486Z,97.72
2017-02-19T03:21:30.210Z,97.82
2017-02-19T03:22:10.768Z,97.72
2017-02-19T03:22:51.632Z,97.63
2017-02-19T03:23:32.224Z,97.72
2017-02-19T03:24:12.822Z,97.72
2017-02-19T03:24:53.388Z,97.72
2017-02-19T03:25:34.955Z,98.1
2017-02-19T03:26:15.600Z,97.72
2017-02-19T03:26:56.187Z,98.01
2017-02-19T03:27:48.798Z,97.63
2017-02-19T03:28:29.438Z,98.01
2017-02-19T03:29:10.002Z,97.82
2017-02-19T03:29:50.655Z,98.01
2017-02-19T03:30:31.285Z,97.82
2017-02-19T03:31:11.867Z,97.82
2017-02-19T03:31:52.425Z,98.29
2017-02-19T03:32:34.025Z,98.01
2017-02-19T03:33:14.628Z,98.29
2017-02-19T03:33:55.194Z,98.29
2017-02-19T03:34:35.853Z,97.72
2017-02-19T03:35:16.530Z,98.2
2017-02-19T03:35:59.187Z,98.2
2017-02-19T03:36:40.817Z,98.2
2017-02-19T03:37:21.459Z,97.91
2017-02-19T03:38:02.120Z,97.16
2017-02-19T03:38:42.776Z,97.16
2017-02-19T03:39:25.373Z,97.44
2017-02-19T03:40:06.015Z,97.44
2017-02-19T03:40:46.669Z,97.34
2017-02-19T03:41:27.330Z,97.44
2017-02-19T03:42:07.978Z,97.34
2017-02-19T03:42:48.636Z,97.44
2017-02-19T03:43:30.306Z,97.34
2017-02-19T03:44:10.956Z,97.34
2017-02-19T03:44:51.611Z,97.34
2017-02-19T03:45:32.617Z,97.34
2017-02-19T03:46:13.176Z,97.44
2017-02-19T03:46:53.838Z,97.44
2017-02-19T03:47:34.427Z,97.44
2017-02-19T03:48:15.025Z,97.34
2017-02-19T03:48:55.587Z,97.63
2017-02-19T03:49:36.143Z,98.01
2017-02-19T03:50:16.731Z,97.63
2017-02-19T03:50:57.394Z,97.44
2017-02-19T03:51:39.064Z,97.44
2017-02-19T03:52:19.711Z,97.44
2017-02-19T03:53:00.375Z,97.44
2017-02-19T03:53:41.028Z,97.53
2017-02-19T03:54:23.674Z,97.44
2017-02-19T03:55:04.237Z,97.44
2017-02-19T03:55:44.921Z,97.25
2017-02-19T03:56:25.576Z,97.53
2017-02-19T03:57:06.229Z,97.53
2017-02-19T03:57:46.901Z,97.25
2017-02-19T03:58:29.491Z,97.91
2017-02-19T03:59:10.130Z,97.44
2017-02-19T03:59:50.793Z,97.91
2017-02-19T04:00:31.381Z,97.34
2017-02-19T04:01:11.961Z,97.44
2017-02-19T04:01:53.632Z,97.44
2017-02-19T04:02:34.242Z,97.44
2017-02-19T04:03:15.842Z,97.34
2017-02-19T04:03:56.402Z,97.63
2017-02-19T04:04:37.056Z,98.01
2017-02-19T04:05:17.654Z,97.44
2017-02-19T04:05:58.243Z,97.44
2017-02-19T04:06:38.814Z,97.53
2017-02-19T04:07:20.489Z,98.01
2017-02-19T04:08:01.089Z,97.44
2017-02-19T04:08:41.679Z,97.44
2017-02-19T04:09:22.285Z,97.53
2017-02-19T04:10:02.897Z,97.91
2017-02-19T04:10:43.482Z,98.01
2017-02-19T04:11:24.085Z,97.44
2017-02-19T04:12:04.649Z,98.01
2017-02-19T04:12:46.321Z,97.53
2017-02-19T04:13:26.917Z,97.34
2017-02-19T04:14:07.510Z,97.44
2017-02-19T04:14:48.077Z,97.91
2017-02-19T04:15:28.736Z,97.91
2017-02-19T04:16:09.408Z,97.53
2017-02-19T04:16:50.035Z,97.72
2017-02-19T04:17:30.686Z,97.53
2017-02-19T04:18:11.330Z,97.53
2017-02-19T04:18:52.395Z,97.53
2017-02-19T04:19:33.044Z,98.01
2017-02-19T04:20:13.721Z,97.44
2017-02-19T04:20:54.355Z,97.91
2017-02-19T04:21:35.934Z,98.01
2017-02-19T04:22:16.599Z,98.01
2017-02-19T04:22:57.240Z,97.44
2017-02-19T04:23:37.908Z,97.91
2017-02-19T04:24:18.546Z,98.01
2017-02-19T04:24:59.203Z,98.01
2017-02-19T04:25:41.782Z,97.44
2017-02-19T04:26:23.371Z,97.44
2017-02-19T04:27:04.044Z,98.01
2017-02-19T04:27:44.707Z,97.34
2017-02-19T04:28:25.333Z,97.25
2017-02-19T04:29:05.994Z,97.44
2017-02-19T04:29:46.640Z,97.44
2017-02-19T04:30:27.292Z,97.25
2017-02-19T04:31:07.941Z,97.44
2017-02-19T04:31:48.592Z,97.34
2017-02-19T04:32:29.252Z,97.44
2017-02-19T04:33:09.915Z,98.01
2017-02-19T04:33:50.574Z,97.34
2017-02-19T04:34:31.207Z,98.01
2017-02-19T04:35:11.860Z,97.34
2017-02-19T04:35:52.514Z,97.25
2017-02-19T04:36:33.066Z,97.34
2017-02-19T04:37:13.719Z,97.25
2017-02-19T04:37:54.387Z,97.25
2017-02-19T04:38:35.019Z,97.34
2017-02-19T04:39:15.692Z,97.34
2017-02-19T04:39:57.769Z,98.01
2017-02-19T04:40:38.350Z,97.25
2017-02-19T04:41:19.313Z,97.34
2017-02-19T04:41:59.921Z,97.34
2017-02-19T04:42:41.595Z,97.44
2017-02-19T04:43:22.169Z,97.44
2017-02-19T04:44:02.822Z,97.63
2017-02-19T04:44:47.948Z,98.01
2017-02-19T04:45:28.508Z,97.34
2017-02-19T04:46:09.185Z,97.44
2017-02-19T04:46:49.801Z,97.34
2017-02-19T04:47:30.377Z,97.44
2017-02-19T04:48:11.024Z,97.44
2017-02-19T04:48:51.661Z,97.44
2017-02-19T04:49:32.212Z,98.01
2017-02-19T04:50:12.891Z,97.49
2017-02-19T04:50:53.517Z,97.25
2017-02-19T04:51:34.130Z,97.49
2017-02-19T04:52:14.734Z,97.63
2017-02-19T04:52:55.383Z,97.68
2017-02-19T04:53:36.042Z,97.49
2017-02-19T04:54:17.732Z,97.49
2017-02-19T04:54:58.373Z,97.49
2017-02-19T04:55:39.025Z,97.39
2017-02-19T04:56:19.691Z,97.68
2017-02-19T04:57:00.266Z,97.39
2017-02-19T04:57:40.883Z,97.68
2017-02-19T04:58:21.536Z,97.49
2017-02-19T04:59:04.137Z,97.39
2017-02-19T04:59:44.826Z,97.39
2017-02-19T05:00:25.401Z,97.49
2017-02-19T05:01:06.007Z,97.49
2017-02-19T05:01:46.589Z,97.49
2017-02-19T05:02:27.141Z,97.49
2017-02-19T05:03:07.727Z,97.39
2017-02-19T05:03:48.300Z,97.39
2017-02-19T05:04:29.977Z,97.68
2017-02-19T05:05:12.660Z,97.49
2017-02-19T05:05:54.332Z,97.49
2017-02-19T05:06:34.983Z,97.68
2017-02-19T05:07:15.635Z,97.49
2017-02-19T05:07:56.291Z,97.68
2017-02-19T05:08:36.945Z,97.68
2017-02-19T05:09:17.593Z,97.39
2017-02-19T05:09:58.252Z,97.39
2017-02-19T05:10:38.809Z,97.68
2017-02-19T05:11:19.479Z,97.49
2017-02-19T05:12:00.062Z,97.49
2017-02-19T05:12:40.661Z,97.49
2017-02-19T05:13:21.214Z,97.49
2017-02-19T05:14:01.888Z,97.49
2017-02-19T05:14:42.476Z,97.49
2017-02-19T05:15:23.059Z,97.49
2017-02-19T05:16:03.622Z,97.68
2017-02-19T05:16:44.266Z,97.49
2017-02-19T05:17:24.925Z,97.39
2017-02-19T05:18:05.567Z,97.39
2017-02-19T05:18:47.143Z,97.49
2017-02-19T05:19:27.798Z,97.49
2017-02-19T05:20:08.457Z,97.49
2017-02-19T05:20:49.462Z,97.49
2017-02-19T05:21:30.106Z,97.2
2017-02-19T05:22:10.784Z,98.15
2017-02-19T05:22:51.378Z,97.2
2017-02-19T05:23:31.935Z,98.25
2017-02-19T05:24:12.601Z,98.15
2017-02-19T05:24:53.288Z,98.06
2017-02-19T05:25:33.854Z,98.15
2017-02-19T05:26:14.472Z,97.87
2017-02-19T05:26:55.080Z,97.49
2017-02-19T05:27:35.657Z,98.34
2017-02-19T05:28:16.293Z,98.06
2017-02-19T05:28:56.942Z,98.15
2017-02-19T05:29:37.498Z,98.34
2017-02-19T05:30:18.158Z,97.77
2017-02-19T05:30:58.802Z,98.34
2017-02-19T05:31:39.455Z,98.06
2017-02-19T05:32:20.110Z,98.15
2017-02-19T05:33:00.752Z,97.49
2017-02-19T05:33:41.415Z,97.82
2017-02-19T05:34:22.056Z,98.06
2017-02-19T05:35:02.619Z,97.96
2017-02-19T05:35:43.260Z,97.87
2017-02-19T05:36:23.915Z,98.01
2017-02-19T05:37:04.488Z,97.91
2017-02-19T05:37:45.064Z,97.82
2017-02-19T05:38:25.664Z,98.1
2017-02-19T05:39:06.328Z,97.72
2017-02-19T05:39:46.905Z,97.87
2017-02-19T05:40:27.530Z,97.87
2017-02-19T05:41:08.177Z,98.06
2017-02-19T05:41:48.825Z,97.87
2017-02-19T05:42:29.479Z,97.87
2017-02-19T05:43:10.130Z,98.06
2017-02-19T05:43:50.786Z,97.58
2017-02-19T05:44:31.437Z,97.68
2017-02-19T05:45:13.013Z,97.87
2017-02-19T05:45:53.672Z,97.96
2017-02-19T05:46:34.325Z,97.87
2017-02-19T05:47:14.968Z,97.87
2017-02-19T05:47:55.627Z,97.87
2017-02-19T05:48:36.280Z,97.87
2017-02-19T05:49:16.932Z,98.06
2017-02-19T05:49:57.517Z,97.87
2017-02-19T05:50:38.092Z,97.96
2017-02-19T05:51:18.710Z,98.06
2017-02-19T05:51:59.340Z,98.06
2017-02-19T05:52:39.899Z,98.06
2017-02-19T05:53:21.483Z,97.87
2017-02-19T05:54:02.118Z,98.06
2017-02-19T05:54:42.673Z,97.87
2017-02-19T05:55:23.341Z,98.06
2017-02-19T05:56:03.969Z,98.06
2017-02-19T05:56:44.525Z,97.87
2017-02-19T05:57:26.142Z,98.06
2017-02-19T05:58:06.831Z,97.87
2017-02-19T05:58:47.402Z,98.06
2017-02-19T05:59:27.978Z,97.87
2017-02-19T06:00:08.610Z,97.68
2017-02-19T06:00:49.219Z,97.77
2017-02-19T06:01:29.817Z,98.53
2017-02-19T06:02:10.415Z,98.72
2017-02-19T06:02:50.978Z,98.63
2017-02-19T06:03:31.634Z,98.34
2017-02-19T06:04:12.213Z,98.72
2017-02-19T06:04:52.771Z,98.34
2017-02-19T06:05:33.488Z,98.44
2017-02-19T06:06:14.085Z,98.44
2017-02-19T06:06:54.646Z,98.25
2017-02-19T06:07:36.304Z,98.25
2017-02-19T06:08:16.972Z,98.15
2017-02-19T06:08:57.533Z,98.44
2017-02-19T06:09:38.184Z,98.25
2017-02-19T06:10:18.813Z,98.15
2017-02-19T06:10:59.378Z,98.15
2017-02-19T06:11:40.026Z,98.25
2017-02-19T06:12:20.623Z,98.25
2017-02-19T06:13:01.210Z,98.15
2017-02-19T06:13:41.877Z,98.15
2017-02-19T06:14:24.478Z,98.15
2017-02-19T06:15:05.012Z,98.25
2017-02-19T06:15:45.604Z,98.44
2017-02-19T06:16:26.220Z,98.15
2017-02-19T06:17:06.794Z,98.25
2017-02-19T06:17:47.383Z,98.25
2017-02-19T06:18:28.994Z,98.44
2017-02-19T06:19:09.590Z,98.34
2017-02-19T06:19:50.150Z,98.15
2017-02-19T06:20:30.743Z,98.06
2017-02-19T06:21:11.324Z,98.06
2017-02-19T06:21:51.891Z,98.15
2017-02-19T06:22:33.535Z,98.25
2017-02-19T06:23:14.189Z,98.06
2017-02-19T06:23:54.757Z,98.06
2017-02-19T06:24:35.401Z,98.06
2017-02-19T06:25:16.054Z,97.96
2017-02-19T06:25:56.649Z,97.96
2017-02-19T06:26:37.234Z,98.06
2017-02-19T06:27:17.781Z,98.06
2017-02-19T06:27:58.369Z,97.96
2017-02-19T06:28:39.070Z,98.06
2017-02-19T06:29:19.617Z,98.15
2017-02-19T06:30:00.167Z,98.06
2017-02-19T06:30:41.740Z,98.06
2017-02-19T06:31:22.317Z,98.06
2017-02-19T06:32:02.917Z,98.06
2017-02-19T06:32:43.486Z,98.44
2017-02-19T06:33:25.060Z,98.15
2017-02-19T06:34:05.648Z,98.06
2017-02-19T06:34:46.207Z,98.06
2017-02-19T06:35:26.798Z,98.15
2017-02-19T06:36:07.338Z,98.06
2017-02-19T06:36:47.911Z,98.25
2017-02-19T06:37:28.484Z,98.06
2017-02-19T06:38:09.049Z,97.96
2017-02-19T06:38:49.623Z,98.44
2017-02-19T06:39:30.199Z,98.06
2017-02-19T06:40:10.801Z,98.06
2017-02-19T06:40:51.367Z,98.15
2017-02-19T06:41:31.934Z,98.15
2017-02-19T06:42:12.501Z,98.44
2017-02-19T06:42:53.072Z,98.06
2017-02-19T06:43:33.637Z,97.96
2017-02-19T06:44:14.209Z,97.96
2017-02-19T06:44:54.775Z,98.06
2017-02-19T06:45:35.343Z,98.15
2017-02-19T06:46:15.998Z,97.96
2017-02-19T06:46:56.621Z,97.96
2017-02-19T06:47:37.208Z,98.44
2017-02-19T06:48:17.787Z,98.06
2017-02-19T06:48:58.349Z,98.44
2017-02-19T06:49:38.951Z,98.06
2017-02-19T06:50:19.517Z,98.06
2017-02-19T06:51:00.094Z,97.87
2017-02-19T06:51:40.675Z,98.25
2017-02-19T06:52:21.268Z,97.87
2017-02-19T06:53:01.846Z,98.44
2017-02-19T06:53:42.457Z,98.44
2017-02-19T06:54:23.024Z,98.06
2017-02-19T06:55:04.611Z,97.96
2017-02-19T06:55:45.198Z,98.15
2017-02-19T06:56:25.808Z,98.06
2017-02-19T06:57:06.375Z,98.25
2017-02-19T06:57:46.952Z,98.06
2017-02-19T06:58:27.540Z,98.15
2017-02-19T06:59:08.129Z,98.06
2017-02-19T06:59:48.695Z,98.15
2017-02-19T07:00:29.282Z,98.06
2017-02-19T07:01:09.856Z,97.96
2017-02-19T07:01:50.435Z,97.87
2017-02-19T07:02:31.013Z,98.06
2017-02-19T07:03:11.979Z,97.96
2017-02-19T07:03:52.557Z,98.06
2017-02-19T07:04:33.144Z,98.25
2017-02-19T07:05:13.702Z,97.96
2017-02-19T07:05:54.263Z,98.06
2017-02-19T07:06:34.861Z,98.06
2017-02-19T07:07:15.449Z,98.06
2017-02-19T07:07:56.004Z,98.01
2017-02-19T07:08:36.568Z,98.01
2017-02-19T07:09:17.147Z,98.2
2017-02-19T07:09:57.714Z,98.2
2017-02-19T07:10:38.279Z,98.2
2017-02-19T07:11:18.876Z,98.2
2017-02-19T07:11:59.453Z,98.01
2017-02-19T07:12:40.053Z,98.11
2017-02-19T07:13:20.614Z,98.11
2017-02-19T07:14:01.189Z,98.11
2017-02-19T07:14:41.769Z,98.11
2017-02-19T07:15:22.340Z,98.11
2017-02-19T07:16:02.911Z,98.01
2017-02-19T07:16:43.474Z,97.92
2017-02-19T07:17:24.031Z,98.39
2017-02-19T07:18:04.637Z,98.39
2017-02-19T07:18:45.217Z,98.3
2017-02-19T07:19:25.832Z,98.39
2017-02-19T07:20:06.370Z,98.3
2017-02-19T07:20:46.947Z,98.49
2017-02-19T07:21:27.534Z,98.49
2017-02-19T07:22:08.121Z,98.39
2017-02-19T07:22:48.731Z,98.2
2017-02-19T07:23:29.305Z,98.3
2017-02-19T07:24:09.893Z,98.3
2017-02-19T07:24:50.462Z,98.49
2017-02-19T07:25:31.075Z,98.2
2017-02-19T07:26:11.656Z,98.39
2017-02-19T07:26:52.231Z,98.39
2017-02-19T07:27:32.789Z,98.39
2017-02-19T07:28:13.368Z,98.77
2017-02-19T07:28:54.087Z,97.82
2017-02-19T07:29:35.667Z,97.82
2017-02-19T07:30:16.231Z,97.92
2017-02-19T07:30:56.797Z,97.92
2017-02-19T07:31:37.402Z,97.92
2017-02-19T07:32:17.984Z,97.82
2017-02-19T07:32:58.552Z,97.82
2017-02-19T07:33:40.132Z,97.82
2017-02-19T07:34:20.702Z,98.11
2017-02-19T07:35:01.300Z,97.92
2017-02-19T07:35:41.905Z,98.01
2017-02-19T07:36:22.503Z,98.01
2017-02-19T07:37:03.106Z,98.39
2017-02-19T07:37:43.704Z,97.25
2017-02-19T07:38:24.328Z,98.3
2017-02-19T07:39:04.910Z,97.44
2017-02-19T07:39:45.482Z,97.54
2017-02-19T07:40:26.048Z,97.44
2017-02-19T07:41:06.630Z,97.44
2017-02-19T07:41:47.244Z,98.11
2017-02-19T07:42:27.840Z,97.82
2017-02-19T07:43:08.470Z,97.82
2017-02-19T07:43:49.100Z,97.54
2017-02-19T07:44:29.687Z,97.92
2017-02-19T07:45:10.313Z,97.54
2017-02-19T07:45:50.954Z,97.25
2017-02-19T07:46:31.527Z,97.68
2017-02-19T07:47:12.174Z,97.4
2017-02-19T07:47:52.852Z,97.4
2017-02-19T07:48:33.498Z,97.21
2017-02-19T07:49:14.149Z,97.78
2017-02-19T07:49:54.797Z,97.11
2017-02-19T07:50:35.437Z,97.02
2017-02-19T07:51:16.039Z,97.11
2017-02-19T07:51:56.626Z,96.83
2017-02-19T07:52:37.206Z,96.73
2017-02-19T07:53:17.845Z,96.92
2017-02-19T07:53:58.445Z,97.3
2017-02-19T07:54:39.029Z,97.4
2017-02-19T07:55:19.593Z,97.11
2017-02-19T07:56:00.253Z,96.73
2017-02-19T07:56:40.890Z,96.73
2017-02-19T07:57:21.484Z,96.73
2017-02-19T07:58:02.124Z,96.73
2017-02-19T07:58:42.741Z,96.26
2017-02-19T07:59:23.339Z,96.36
2017-02-19T08:00:03.970Z,96.17
2017-02-19T08:00:44.710Z,96.26
2017-02-19T08:01:25.316Z,96.26
2017-02-19T08:02:05.929Z,96.45
2017-02-19T08:02:46.565Z,96.36
2017-02-19T08:03:27.284Z,95.79
2017-02-19T08:04:07.898Z,96.07
2017-02-19T08:04:48.547Z,96.17
2017-02-19T08:05:29.187Z,96.07
2017-02-19T08:06:11.824Z,96.07
2017-02-19T08:06:52.407Z,95.5
2017-02-19T08:07:32.972Z,95.88
2017-02-19T08:08:13.633Z,95.65
2017-02-19T08:08:54.286Z,95.45
2017-02-19T08:09:34.844Z,95.65
2017-02-19T08:10:15.408Z,95.26
2017-02-19T08:10:56.040Z,95.55
2017-02-19T08:11:36.725Z,95.55
2017-02-19T08:12:17.349Z,95.65
2017-02-19T08:12:58.003Z,95.45
2017-02-19T08:13:38.649Z,94.98
2017-02-19T08:14:19.352Z,94.89
2017-02-19T08:15:01.004Z,95.26
2017-02-19T08:15:41.664Z,94.98
2017-02-19T08:16:22.331Z,95.07
2017-02-19T08:17:02.904Z,94.79
2017-02-19T08:17:43.512Z,94.89
2017-02-19T08:18:24.218Z,95.07
2017-02-19T08:19:04.845Z,94.98
2017-02-19T08:19:45.410Z,94.23
2017-02-19T08:20:25.968Z,94.42
2017-02-19T08:21:06.581Z,95.17
2017-02-19T08:21:47.219Z,94.7
2017-02-19T08:22:27.868Z,94.79
2017-02-19T08:23:08.518Z,94.51
2017-02-19T08:23:49.162Z,94.79
2017-02-19T08:24:29.821Z,94.32
2017-02-19T08:25:10.492Z,94.7
2017-02-19T08:25:51.132Z,94.79
2017-02-19T08:26:31.813Z,94.32
2017-02-19T08:27:12.418Z,94.42
2017-02-19T08:27:52.971Z,94.23
2017-02-19T08:28:33.627Z,94.04
2017-02-19T08:29:14.435Z,94.23
2017-02-19T08:29:56.046Z,94.51
2017-02-19T08:30:36.606Z,93.56
2017-02-19T08:31:17.297Z,93.84
2017-02-19T08:31:57.973Z,93.94
2017-02-19T08:32:38.568Z,93.75
2017-02-19T08:33:19.145Z,93.84
2017-02-19T08:33:59.771Z,93.94
2017-02-19T08:34:40.370Z,93.46
2017-02-19T08:35:20.959Z,93.65
2017-02-19T08:36:01.510Z,93.65
2017-02-19T08:36:42.088Z,93.65
2017-02-19T08:37:23.757Z,93.94
2017-02-19T08:38:04.407Z,93.84
2017-02-19T08:38:45.075Z,92.99
2017-02-19T08:39:25.746Z,93.46
2017-02-19T08:40:06.369Z,93.27
2017-02-19T08:40:47.036Z,92.9
2017-02-19T08:41:27.682Z,93.08
2017-02-19T08:42:08.344Z,92.9
2017-02-19T08:42:48.974Z,92.99
2017-02-19T08:43:30.560Z,92.9
2017-02-19T08:44:13.152Z,92.99
2017-02-19T08:44:53.805Z,93.08
2017-02-19T08:45:35.363Z,92.9
2017-02-19T08:46:16.945Z,92.38
2017-02-19T08:46:57.606Z,92.33